Time;durP1;ratioP1;P1;durP2;ratioP2;P2;SDS_P1;SDS_P2;PMS_P1;PMS_P2;Temp;Humidity;BMP_temperature;BMP_pressure;BME280_temperature;BME280_humidity;BME280_pressure;Samples;Min_cycle;Max_cycle;Signal;HPM_P1;HPM_P2
2021/08/29 00:02:16;;;;;;;2.70;1.85;;;;;;;;;;5057644;28;20501;-82
2021/08/29 00:04:42;;;;;;;2.08;1.80;;;;;;;;;;5057462;28;20033;-81
2021/08/29 00:07:09;;;;;;;1.60;1.50;;;;;;;;;;5058057;28;20480;-82
2021/08/29 00:09:35;;;;;;;1.88;1.77;;;;;;;;;;5058020;28;20025;-82
2021/08/29 00:12:01;;;;;;;1.52;1.30;;;;;;;;;;5058217;28;20124;-82
2021/08/29 00:14:27;;;;;;;1.60;1.50;;;;;;;;;;5059097;28;20021;-82
2021/08/29 00:16:53;;;;;;;1.60;1.50;;;;;;;;;;5058013;28;20055;-81
2021/08/29 00:19:19;;;;;;;1.73;1.58;;;;;;;;;;5058058;28;20072;-81
2021/08/29 00:21:45;;;;;;;2.22;1.75;;;;;;;;;;5058772;28;20021;-82
2021/08/29 00:24:11;;;;;;;1.55;1.15;;;;;;;;;;5056184;28;20106;-82
2021/08/29 00:26:37;;;;;;;1.45;1.35;;;;;;;;;;5058192;28;20021;-82
2021/08/29 00:29:03;;;;;;;1.35;1.27;;;;;;;;;;5058472;28;20032;-83
2021/08/29 00:31:29;;;;;;;8.15;2.75;;;;;;;;;;5057994;28;20608;-81
2021/08/29 00:33:56;;;;;;;2.03;1.50;;;;;;;;;;5064752;28;20025;-82
2021/08/29 00:36:22;;;;;;;1.02;1.02;;;;;;;;;;5058287;28;20033;-83
2021/08/29 00:38:48;;;;;;;1.20;1.00;;;;;;;;;;5064851;28;20051;-83
2021/08/29 00:41:14;;;;;;;1.55;1.45;;;;;;;;;;5062004;28;20138;-83
2021/08/29 00:43:40;;;;;;;1.60;1.25;;;;;;;;;;5058349;28;20025;-83
2021/08/29 00:46:07;;;;;;;1.88;1.67;;;;;;;;;;5065492;28;20036;-82
2021/08/29 00:48:33;;;;;;;1.40;1.27;;;;;;;;;;5066747;28;20029;-83
2021/08/29 00:50:59;;;;;;;2.05;1.00;;;;;;;;;;5066788;28;20547;-82
2021/08/29 00:53:26;;;;;;;1.10;1.10;;;;;;;;;;5066771;28;20023;-83
2021/08/29 00:55:52;;;;;;;1.38;1.30;;;;;;;;;;5066324;28;20059;-83
2021/08/29 00:58:19;;;;;;;2.03;1.58;;;;;;;;;;5024743;28;1186568;-82
2021/08/29 01:00:45;;;;;;;1.85;1.75;;;;;;;;;;5065936;28;20032;-81
2021/08/29 01:03:16;;;;;;;2.63;1.50;;;;;;;;;;5067654;28;20033;-82
2021/08/29 01:05:47;;;;;;;1.23;1.23;;;;;;;;;;5081342;28;20025;-81
2021/08/29 01:08:16;;;;;;;1.50;1.40;;;;;;;;;;5081824;28;20037;-84
2021/08/29 01:10:43;;;;;;;1.70;1.60;;;;;;;;;;5076764;28;20069;-81
2021/08/29 01:13:10;;;;;;;2.45;1.40;;;;;;;;;;5057584;28;20017;-82
2021/08/29 01:15:37;;;;;;;1.00;1.00;;;;;;;;;;5057538;28;20036;-82
2021/08/29 01:18:03;;;;;;;1.00;1.00;;;;;;;;;;5057328;28;20032;-82
2021/08/29 01:20:44;;;;;;;2.47;1.40;;;;;;;;;;5057388;28;20025;-82
2021/08/29 01:23:11;;;;;;;1.88;1.58;;;;;;;;;;5055724;28;20087;-82
2021/08/29 01:25:39;;;;;;;2.00;1.50;;;;;;;;;;5057926;28;20041;-81
2021/08/29 01:28:13;;;;;;;1.35;1.25;;;;;;;;;;5057976;28;20052;-82
2021/08/29 01:30:39;;;;;;;1.00;1.00;;;;;;;;;;5057905;28;20025;-82
2021/08/29 01:33:07;;;;;;;1.80;1.70;;;;;;;;;;5058592;28;20047;-81
2021/08/29 01:35:33;;;;;;;1.92;1.73;;;;;;;;;;5077170;28;20543;-82
2021/08/29 01:38:00;;;;;;;1.63;1.52;;;;;;;;;;5077310;28;20477;-82
2021/08/29 01:40:26;;;;;;;1.70;1.60;;;;;;;;;;5060910;28;20037;-82
2021/08/29 01:42:53;;;;;;;1.52;1.42;;;;;;;;;;5057664;28;20120;-83
2021/08/29 01:45:19;;;;;;;1.52;1.42;;;;;;;;;;5069920;28;20033;-82
2021/08/29 01:47:45;;;;;;;1.92;1.40;;;;;;;;;;5067954;28;20025;-81
2021/08/29 01:50:12;;;;;;;3.25;1.98;;;;;;;;;;5065783;28;20051;-81
2021/08/29 01:52:38;;;;;;;1.27;1.20;;;;;;;;;;5066203;28;20025;-82
2021/08/29 01:55:05;;;;;;;1.67;1.20;;;;;;;;;;5065422;28;20093;-82
2021/08/29 01:57:31;;;;;;;1.17;1.08;;;;;;;;;;5062673;28;20037;-83
2021/08/29 01:59:57;;;;;;;1.00;1.00;;;;;;;;;;5076908;23;20032;-80
2021/08/29 02:02:23;;;;;;;0.70;0.70;;;;;;;;;;5048708;28;20037;-81
2021/08/29 02:04:49;;;;;;;1.35;1.00;;;;;;;;;;5052216;28;20086;-81
2021/08/29 02:07:28;;;;;;;1.30;1.10;;;;;;;;;;5057050;28;20073;-79
2021/08/29 02:10:00;;;;;;;1.08;1.08;;;;;;;;;;5066737;28;20112;-81
2021/08/29 02:12:27;;;;;;;0.90;0.90;;;;;;;;;;5035219;28;20029;-81
2021/08/29 02:15:00;;;;;;;1.25;0.98;;;;;;;;;;5054278;28;20049;-80
2021/08/29 02:17:27;;;;;;;1.52;1.23;;;;;;;;;;5039406;28;20026;-81
2021/08/29 02:19:53;;;;;;;2.13;1.10;;;;;;;;;;5036764;28;20036;-81
2021/08/29 02:22:20;;;;;;;1.23;1.08;;;;;;;;;;5035627;28;20026;-80
2021/08/29 02:24:47;;;;;;;0.85;0.85;;;;;;;;;;5038442;28;20058;-80
2021/08/29 02:27:14;;;;;;;1.30;1.20;;;;;;;;;;5037897;28;20021;-80
2021/08/29 02:29:41;;;;;;;1.30;1.20;;;;;;;;;;5034681;28;20021;-81
2021/08/29 02:32:09;;;;;;;3.70;0.90;;;;;;;;;;5045198;28;20052;-81
2021/08/29 02:34:35;;;;;;;2.03;1.00;;;;;;;;;;5046267;28;20052;-81
2021/08/29 02:37:02;;;;;;;0.90;0.90;;;;;;;;;;5036530;28;20116;-82
2021/08/29 02:39:29;;;;;;;1.00;1.00;;;;;;;;;;5035600;28;20481;-82
2021/08/29 02:41:57;;;;;;;1.27;1.23;;;;;;;;;;5035624;28;20022;-82
2021/08/29 02:44:23;;;;;;;1.40;1.25;;;;;;;;;;5052838;28;20093;-82
2021/08/29 02:46:50;;;;;;;1.10;1.00;;;;;;;;;;5037630;28;20541;-81
2021/08/29 02:49:20;;;;;;;2.20;1.27;;;;;;;;;;5036468;28;20083;-80
2021/08/29 02:51:47;;;;;;;1.17;1.15;;;;;;;;;;5036470;28;20053;-82
2021/08/29 02:54:13;;;;;;;1.63;1.48;;;;;;;;;;5037487;28;20025;-81
2021/08/29 02:56:43;;;;;;;1.30;1.20;;;;;;;;;;5037116;28;20037;-80
2021/08/29 02:59:12;;;;;;;2.53;1.40;;;;;;;;;;5038793;28;20025;-81
2021/08/29 03:01:39;;;;;;;1.10;1.10;;;;;;;;;;5034893;28;20051;-80
2021/08/29 03:04:05;;;;;;;1.40;1.30;;;;;;;;;;5045237;28;20033;-78
2021/08/29 03:06:31;;;;;;;1.50;1.23;;;;;;;;;;5037918;28;20029;-81
2021/08/29 03:08:57;;;;;;;2.67;1.45;;;;;;;;;;5037930;28;20081;-80
2021/08/29 03:11:23;;;;;;;1.48;1.38;;;;;;;;;;5041860;28;20077;-78
2021/08/29 03:13:50;;;;;;;1.33;1.15;;;;;;;;;;5040764;28;20121;-81
2021/08/29 03:16:16;;;;;;;1.23;1.20;;;;;;;;;;5042010;28;20038;-81
2021/08/29 03:18:44;;;;;;;1.92;1.67;;;;;;;;;;5039308;28;20025;-81
2021/08/29 03:21:10;;;;;;;1.50;1.23;;;;;;;;;;5038272;28;20025;-81
2021/08/29 03:23:36;;;;;;;1.38;1.20;;;;;;;;;;5041113;28;20033;-81
2021/08/29 03:26:02;;;;;;;2.83;1.60;;;;;;;;;;5039638;28;20048;-81
2021/08/29 03:28:29;;;;;;;2.50;2.30;;;;;;;;;;5040410;28;20036;-81
2021/08/29 03:30:55;;;;;;;1.73;1.60;;;;;;;;;;5047971;28;20014;-82
2021/08/29 03:33:23;;;;;;;1.52;1.42;;;;;;;;;;5052462;28;20041;-81
2021/08/29 03:35:51;;;;;;;1.83;1.73;;;;;;;;;;5044450;28;20037;-82
2021/08/29 03:38:18;;;;;;;1.15;1.15;;;;;;;;;;5039788;28;20112;-81
2021/08/29 03:40:45;;;;;;;1.58;1.48;;;;;;;;;;5041566;28;20086;-81
2021/08/29 03:43:13;;;;;;;1.35;1.25;;;;;;;;;;5039218;28;20034;-82
2021/08/29 03:45:39;;;;;;;1.80;1.70;;;;;;;;;;5055397;28;20390;-81
2021/08/29 03:48:05;;;;;;;2.30;2.10;;;;;;;;;;5040447;28;20028;-81
2021/08/29 03:50:31;;;;;;;1.75;1.60;;;;;;;;;;5055609;28;20025;-81
2021/08/29 03:52:57;;;;;;;2.05;1.95;;;;;;;;;;5038421;28;20032;-81
2021/08/29 03:55:24;;;;;;;2.28;1.88;;;;;;;;;;5029863;28;20393;-80
2021/08/29 03:57:50;;;;;;;2.00;1.90;;;;;;;;;;5034107;28;20037;-82
2021/08/29 04:00:17;;;;;;;2.08;1.90;;;;;;;;;;5043750;28;20084;-80
2021/08/29 04:02:43;;;;;;;2.13;1.88;;;;;;;;;;5041768;28;20044;-81
2021/08/29 04:05:10;;;;;;;3.38;2.10;;;;;;;;;;5033858;28;20029;-80
2021/08/29 04:07:37;;;;;;;2.55;2.30;;;;;;;;;;5031034;28;20028;-80
2021/08/29 04:10:04;;;;;;;5.30;2.80;;;;;;;;;;5030364;28;20025;-80
2021/08/29 04:12:31;;;;;;;2.58;2.38;;;;;;;;;;5029504;28;20030;-81
2021/08/29 04:14:58;;;;;;;3.70;2.50;;;;;;;;;;5034665;28;20022;-82
2021/08/29 04:17:25;;;;;;;3.17;2.88;;;;;;;;;;5050739;28;20041;-82
2021/08/29 04:19:52;;;;;;;4.57;2.80;;;;;;;;;;5040292;28;20081;-81
2021/08/29 04:22:18;;;;;;;4.15;3.50;;;;;;;;;;5045166;28;20036;-82
2021/08/29 04:24:44;;;;;;;4.05;3.67;;;;;;;;;;5035971;28;20022;-82
2021/08/29 04:27:11;;;;;;;3.50;3.20;;;;;;;;;;5056489;28;20048;-81
2021/08/29 04:29:37;;;;;;;3.97;3.17;;;;;;;;;;5046300;28;20032;-81
2021/08/29 04:32:04;;;;;;;3.95;3.55;;;;;;;;;;5044424;28;20048;-82
2021/08/29 04:34:30;;;;;;;4.13;3.72;;;;;;;;;;5045455;28;20505;-83
2021/08/29 04:36:56;;;;;;;4.72;4.00;;;;;;;;;;5032935;28;20137;-82
2021/08/29 04:39:22;;;;;;;3.25;2.45;;;;;;;;;;5047189;28;20097;-83
2021/08/29 04:41:48;;;;;;;3.47;3.03;;;;;;;;;;5031231;28;20018;-82
2021/08/29 04:44:14;;;;;;;5.03;3.90;;;;;;;;;;5047258;28;20408;-82
2021/08/29 04:46:40;;;;;;;3.80;3.40;;;;;;;;;;5040274;28;20498;-82
2021/08/29 04:49:06;;;;;;;3.72;3.42;;;;;;;;;;5029692;28;20089;-82
2021/08/29 04:51:33;;;;;;;4.07;3.65;;;;;;;;;;5031741;28;20021;-82
2021/08/29 04:53:59;;;;;;;4.13;3.72;;;;;;;;;;5041034;28;20481;-83
2021/08/29 04:56:25;;;;;;;4.75;3.55;;;;;;;;;;5046880;28;20478;-82
2021/08/29 04:58:51;;;;;;;3.35;3.05;;;;;;;;;;5039342;28;20033;-81
2021/08/29 05:01:17;;;;;;;3.05;2.70;;;;;;;;;;5040829;28;20033;-80
2021/08/29 05:03:43;;;;;;;4.10;3.70;;;;;;;;;;5052227;28;20474;-81
2021/08/29 05:06:09;;;;;;;4.38;3.50;;;;;;;;;;5049971;28;20057;-81
2021/08/29 05:08:35;;;;;;;3.50;3.20;;;;;;;;;;5037004;28;20022;-80
2021/08/29 05:11:02;;;;;;;3.92;3.47;;;;;;;;;;5036568;28;20537;-81
2021/08/29 05:13:28;;;;;;;4.80;4.05;;;;;;;;;;5038661;28;20014;-80
2021/08/29 05:15:55;;;;;;;4.38;3.85;;;;;;;;;;5038857;28;20049;-81
2021/08/29 05:18:21;;;;;;;4.72;3.97;;;;;;;;;;5044581;28;20021;-81
2021/08/29 05:20:47;;;;;;;3.40;3.10;;;;;;;;;;5057010;28;20028;-81
2021/08/29 05:23:13;;;;;;;4.55;3.90;;;;;;;;;;5037192;28;20037;-80
2021/08/29 05:25:39;;;;;;;3.90;3.53;;;;;;;;;;5036802;28;20133;-80
2021/08/29 05:28:05;;;;;;;6.13;4.05;;;;;;;;;;5036860;28;20451;-81
2021/08/29 05:30:32;;;;;;;5.20;4.13;;;;;;;;;;5035252;28;20028;-80
2021/08/29 05:32:58;;;;;;;5.57;4.40;;;;;;;;;;5069355;28;20017;-80
2021/08/29 05:35:24;;;;;;;4.28;3.88;;;;;;;;;;5036814;28;20029;-81
2021/08/29 05:37:50;;;;;;;3.88;3.53;;;;;;;;;;5036878;28;20025;-80
2021/08/29 05:40:16;;;;;;;5.60;3.67;;;;;;;;;;5037066;28;20511;-80
2021/08/29 05:42:42;;;;;;;4.60;3.40;;;;;;;;;;5038400;28;20084;-81
2021/08/29 05:45:08;;;;;;;6.07;5.18;;;;;;;;;;5038569;28;20025;-81
2021/08/29 05:47:34;;;;;;;7.97;4.57;;;;;;;;;;5040964;28;20026;-82
2021/08/29 05:50:00;;;;;;;8.68;6.20;;;;;;;;;;5037581;28;20025;-81
2021/08/29 05:52:26;;;;;;;5.63;4.80;;;;;;;;;;5037924;28;20770;-81
2021/08/29 05:54:52;;;;;;;5.32;4.30;;;;;;;;;;5039813;28;20127;-80
2021/08/29 05:57:18;;;;;;;5.95;4.60;;;;;;;;;;5041384;28;20052;-81
2021/08/29 05:59:44;;;;;;;5.63;4.85;;;;;;;;;;5046933;28;20281;-81
2021/08/29 06:02:10;;;;;;;7.35;5.43;;;;;;;;;;5056973;28;20034;-81
2021/08/29 06:04:36;;;;;;;7.00;6.13;;;;;;;;;;5057033;28;20029;-81
2021/08/29 06:07:04;;;;;;;5.85;5.25;;;;;;;;;;5047777;28;20032;-81
2021/08/29 06:09:30;;;;;;;6.45;4.90;;;;;;;;;;5039113;28;20464;-82
2021/08/29 06:11:56;;;;;;;4.32;3.92;;;;;;;;;;5036909;28;20022;-81
2021/08/29 06:14:22;;;;;;;5.22;4.72;;;;;;;;;;5038294;28;20083;-81
2021/08/29 06:16:48;;;;;;;8.82;6.40;;;;;;;;;;5044275;28;20091;-80
2021/08/29 06:19:14;;;;;;;7.10;6.40;;;;;;;;;;5052571;28;20417;-80
2021/08/29 06:21:40;;;;;;;7.13;6.40;;;;;;;;;;5038728;28;20105;-81
2021/08/29 06:24:06;;;;;;;7.80;5.72;;;;;;;;;;5038026;28;20021;-79
2021/08/29 06:26:32;;;;;;;7.20;5.82;;;;;;;;;;5043919;28;20483;-82
2021/08/29 06:28:58;;;;;;;7.10;6.40;;;;;;;;;;5057789;28;20025;-80
2021/08/29 06:31:24;;;;;;;7.53;5.60;;;;;;;;;;5064328;28;20035;-79
2021/08/29 06:33:50;;;;;;;7.63;6.68;;;;;;;;;;5054116;28;20104;-80
2021/08/29 06:36:16;;;;;;;7.55;6.55;;;;;;;;;;5047489;28;20504;-80
2021/08/29 06:38:42;;;;;;;6.93;6.05;;;;;;;;;;5058673;28;20052;-81
2021/08/29 06:41:08;;;;;;;6.72;5.75;;;;;;;;;;5053717;28;20022;-81
2021/08/29 06:43:34;;;;;;;7.38;5.72;;;;;;;;;;5038320;28;20103;-82
2021/08/29 06:46:00;;;;;;;5.35;4.72;;;;;;;;;;5039179;28;20086;-81
2021/08/29 06:48:26;;;;;;;6.57;5.85;;;;;;;;;;5037990;28;20026;-81
2021/08/29 06:50:53;;;;;;;8.02;5.93;;;;;;;;;;5037779;28;20034;-81
2021/08/29 06:53:19;;;;;;;8.60;6.18;;;;;;;;;;5036304;28;20018;-81
2021/08/29 06:55:45;;;;;;;7.50;5.43;;;;;;;;;;5037933;28;20112;-81
2021/08/29 06:58:11;;;;;;;7.88;6.07;;;;;;;;;;5037881;28;20025;-81
2021/08/29 07:00:37;;;;;;;8.40;7.28;;;;;;;;;;5038889;28;20026;-82
2021/08/29 07:03:03;;;;;;;8.20;6.93;;;;;;;;;;5063701;28;20044;-82
2021/08/29 07:05:29;;;;;;;8.15;6.80;;;;;;;;;;5053183;28;20033;-83
2021/08/29 07:07:55;;;;;;;6.63;5.95;;;;;;;;;;5054078;28;20025;-81
2021/08/29 07:10:21;;;;;;;6.72;6.03;;;;;;;;;;5035818;28;20021;-80
2021/08/29 07:12:47;;;;;;;7.78;6.05;;;;;;;;;;5040622;28;20025;-80
2021/08/29 07:15:13;;;;;;;5.97;5.38;;;;;;;;;;5040420;28;20026;-79
2021/08/29 07:17:39;;;;;;;6.18;5.57;;;;;;;;;;5050122;28;20029;-82
2021/08/29 07:20:06;;;;;;;6.13;5.45;;;;;;;;;;5048546;28;20030;-82
2021/08/29 07:22:32;;;;;;;5.63;4.80;;;;;;;;;;5042940;28;20026;-81
2021/08/29 07:24:58;;;;;;;4.88;4.38;;;;;;;;;;5045031;28;20033;-80
2021/08/29 07:27:24;;;;;;;6.22;4.57;;;;;;;;;;5043031;28;20025;-81
2021/08/29 07:29:50;;;;;;;4.65;4.18;;;;;;;;;;5037930;28;20045;-81
2021/08/29 07:32:16;;;;;;;4.22;3.83;;;;;;;;;;5042866;28;20075;-81
2021/08/29 07:34:42;;;;;;;7.00;4.88;;;;;;;;;;5052871;28;20029;-80
2021/08/29 07:37:08;;;;;;;4.38;3.95;;;;;;;;;;5034964;28;20056;-80
2021/08/29 07:39:34;;;;;;;4.30;3.90;;;;;;;;;;5036929;28;20028;-81
2021/08/29 07:42:00;;;;;;;4.30;3.90;;;;;;;;;;5035751;28;20125;-81
2021/08/29 07:44:26;;;;;;;3.78;3.13;;;;;;;;;;5040563;28;20432;-81
2021/08/29 07:46:52;;;;;;;3.03;2.83;;;;;;;;;;5041989;28;20044;-81
2021/08/29 07:49:18;;;;;;;4.30;3.90;;;;;;;;;;5035203;28;20025;-80
2021/08/29 07:51:44;;;;;;;5.68;3.83;;;;;;;;;;5037743;28;20029;-81
2021/08/29 07:54:10;;;;;;;4.55;3.05;;;;;;;;;;5038049;28;20358;-81
2021/08/29 07:56:36;;;;;;;3.08;2.78;;;;;;;;;;5041052;28;20033;-81
2021/08/29 07:59:05;;;;;;;2.20;2.00;;;;;;;;;;5045213;28;20124;-81
2021/08/29 08:01:31;;;;;;;2.40;2.20;;;;;;;;;;5049501;28;20033;-80
2021/08/29 08:03:57;;;;;;;2.10;1.90;;;;;;;;;;5054719;28;20030;-80
2021/08/29 08:06:23;;;;;;;2.90;2.13;;;;;;;;;;5047318;28;20080;-81
2021/08/29 08:08:49;;;;;;;3.25;1.70;;;;;;;;;;5044857;28;20129;-79
2021/08/29 08:11:15;;;;;;;1.88;1.50;;;;;;;;;;5048100;28;20029;-80
2021/08/29 08:13:41;;;;;;;1.90;1.65;;;;;;;;;;5045894;28;20041;-80
2021/08/29 08:16:09;;;;;;;1.75;1.65;;;;;;;;;;5044972;28;20025;-80
2021/08/29 08:18:35;;;;;;;1.73;1.63;;;;;;;;;;5048451;28;20049;-81
2021/08/29 08:21:02;;;;;;;1.50;1.40;;;;;;;;;;5046646;28;20037;-81
2021/08/29 08:23:28;;;;;;;1.65;1.55;;;;;;;;;;5045995;28;20470;-81
2021/08/29 08:25:54;;;;;;;1.23;1.23;;;;;;;;;;5048349;28;20047;-81
2021/08/29 08:28:20;;;;;;;2.05;1.63;;;;;;;;;;5045570;28;20461;-81
2021/08/29 08:30:46;;;;;;;1.67;1.58;;;;;;;;;;5048320;28;20018;-81
2021/08/29 08:33:12;;;;;;;1.30;1.20;;;;;;;;;;5062473;28;20029;-81
2021/08/29 08:35:38;;;;;;;1.80;1.70;;;;;;;;;;5056101;28;20021;-81
2021/08/29 08:38:04;;;;;;;1.40;1.30;;;;;;;;;;5055531;28;20027;-80
2021/08/29 08:40:37;;;;;;;1.73;1.38;;;;;;;;;;5054540;28;20035;-81
2021/08/29 08:43:03;;;;;;;1.83;1.73;;;;;;;;;;5055553;28;20029;-81
2021/08/29 08:45:29;;;;;;;2.17;1.63;;;;;;;;;;5053813;28;20029;-81
2021/08/29 08:47:56;;;;;;;1.63;1.52;;;;;;;;;;5070153;28;20168;-81
2021/08/29 08:50:22;;;;;;;2.85;1.90;;;;;;;;;;5055321;28;20017;-80
2021/08/29 08:52:49;;;;;;;2.05;1.90;;;;;;;;;;5054217;28;20132;-81
2021/08/29 08:55:15;;;;;;;1.65;1.55;;;;;;;;;;5054463;28;20041;-80
2021/08/29 08:57:42;;;;;;;1.52;1.42;;;;;;;;;;5054989;28;20040;-80
2021/08/29 09:00:08;;;;;;;2.10;1.90;;;;;;;;;;5052463;28;20022;-80
2021/08/29 09:02:34;;;;;;;4.60;2.17;;;;;;;;;;5063179;28;20077;-81
2021/08/29 09:05:01;;;;;;;1.95;1.85;;;;;;;;;;5063691;28;20028;-80
2021/08/29 09:07:27;;;;;;;2.17;1.95;;;;;;;;;;5043053;28;20045;-81
2021/08/29 09:09:53;;;;;;;1.27;1.23;;;;;;;;;;5043918;28;20041;-80
2021/08/29 09:12:19;;;;;;;2.47;1.55;;;;;;;;;;5044122;28;20025;-80
2021/08/29 09:14:45;;;;;;;2.47;1.85;;;;;;;;;;5060045;28;20079;-81
2021/08/29 09:17:25;;;;;;;2.17;1.70;;;;;;;;;;5042881;28;20173;-80
2021/08/29 09:19:52;;;;;;;2.65;1.65;;;;;;;;;;5041081;28;20021;-80
2021/08/29 09:22:25;;;;;;;2.42;1.58;;;;;;;;;;5055295;28;20026;-82
2021/08/29 09:24:52;;;;;;;3.78;2.60;;;;;;;;;;5048120;28;20041;-84
2021/08/29 09:27:21;;;;;;;3.17;2.28;;;;;;;;;;5065036;28;20025;-81
2021/08/29 09:29:47;;;;;;;2.83;2.63;;;;;;;;;;5046877;28;20596;-81
2021/08/29 09:32:16;;;;;;;2.13;1.75;;;;;;;;;;5043428;28;20069;-83
2021/08/29 09:34:55;;;;;;;2.35;2.05;;;;;;;;;;5059529;28;20036;-82
2021/08/29 09:37:22;;;;;;;2.63;2.28;;;;;;;;;;5040330;28;20396;-80
2021/08/29 09:39:51;;;;;;;2.92;2.60;;;;;;;;;;5038833;28;20032;-81
2021/08/29 09:42:18;;;;;;;3.17;2.53;;;;;;;;;;5039873;28;20022;-82
2021/08/29 09:44:44;;;;;;;2.00;1.83;;;;;;;;;;5043266;28;20044;-81
2021/08/29 09:47:13;;;;;;;3.58;2.50;;;;;;;;;;5029153;28;20509;-82
2021/08/29 09:49:39;;;;;;;2.60;2.40;;;;;;;;;;5041046;28;20040;-81
2021/08/29 09:52:09;;;;;;;3.35;3.05;;;;;;;;;;5040012;28;20025;-82
2021/08/29 09:54:41;;;;;;;3.78;3.47;;;;;;;;;;5040482;28;20056;-81
2021/08/29 09:57:07;;;;;;;;;;;;;;;;;;5044352;28;20021;-81
2021/08/29 09:59:42;;;;;;;2.95;2.70;;;;;;;;;;5040733;28;19905;-82
2021/08/29 10:02:12;;;;;;;3.97;3.10;;;;;;;;;;5040636;28;20048;-82
2021/08/29 10:04:51;;;;;;;3.70;3.40;;;;;;;;;;5052489;28;20037;-81
2021/08/29 10:07:18;;;;;;;3.13;2.83;;;;;;;;;;5050514;28;20104;-81
2021/08/29 10:09:46;;;;;;;3.20;2.90;;;;;;;;;;5070823;28;20040;-83
2021/08/29 10:12:12;;;;;;;2.35;2.15;;;;;;;;;;5042776;28;20021;-82
2021/08/29 10:14:39;;;;;;;2.83;2.22;;;;;;;;;;5041326;28;20037;-82
2021/08/29 10:17:06;;;;;;;3.33;2.95;;;;;;;;;;5041812;28;20064;-81
2021/08/29 10:19:32;;;;;;;3.00;2.00;;;;;;;;;;5040779;28;20340;-81
2021/08/29 10:22:00;;;;;;;3.00;2.80;;;;;;;;;;5038651;28;20037;-81
2021/08/29 10:24:30;;;;;;;3.00;2.70;;;;;;;;;;5039575;28;20017;-81
2021/08/29 10:26:58;;;;;;;2.95;2.75;;;;;;;;;;5039283;28;20039;-83
2021/08/29 10:29:28;;;;;;;3.28;2.97;;;;;;;;;;5036722;28;20037;-81
2021/08/29 10:32:14;;;;;;;3.28;2.97;;;;;;;;;;5039255;28;20081;-81
2021/08/29 10:34:45;;;;;;;3.38;2.13;;;;;;;;;;5035411;28;20042;-82
2021/08/29 10:37:11;;;;;;;1.83;1.73;;;;;;;;;;5041903;28;20039;-83
2021/08/29 10:39:40;;;;;;;2.58;2.38;;;;;;;;;;5040024;28;20056;-81
2021/08/29 10:42:07;;;;;;;1.70;1.60;;;;;;;;;;5042409;28;20027;-81
2021/08/29 10:44:34;;;;;;;2.13;2.03;;;;;;;;;;5047875;28;20525;-79
2021/08/29 10:47:01;;;;;;;2.13;1.85;;;;;;;;;;5035896;28;20309;-80
2021/08/29 10:49:27;;;;;;;2.35;2.00;;;;;;;;;;5036644;28;20022;-80
2021/08/29 10:51:54;;;;;;;1.45;1.35;;;;;;;;;;5037602;28;20067;-79
2021/08/29 10:54:20;;;;;;;1.38;1.27;;;;;;;;;;5037021;28;20079;-80
2021/08/29 10:56:46;;;;;;;1.33;1.30;;;;;;;;;;5036283;28;20057;-80
2021/08/29 10:59:12;;;;;;;2.03;1.80;;;;;;;;;;5036569;28;20385;-80
2021/08/29 11:01:49;;;;;;;1.42;1.35;;;;;;;;;;5042929;28;20037;-82
2021/08/29 11:04:21;;;;;;;3.03;1.40;;;;;;;;;;5043367;28;20033;-82
2021/08/29 11:06:47;;;;;;;1.73;1.58;;;;;;;;;;5042069;28;20032;-81
2021/08/29 11:09:35;;;;;;;2.03;1.27;;;;;;;;;;5042293;28;20022;-81
2021/08/29 11:12:06;;;;;;;1.52;1.30;;;;;;;;;;5040387;28;20034;-83
2021/08/29 11:14:39;;;;;;;2.13;1.10;;;;;;;;;;5042727;28;20030;-83
2021/08/29 11:17:12;;;;;;;1.10;1.10;;;;;;;;;;5035310;28;20022;-81
2021/08/29 11:19:39;;;;;;;1.13;1.00;;;;;;;;;;5018405;28;20026;-82
2021/08/29 11:22:09;;;;;;;1.05;1.02;;;;;;;;;;5024148;28;20389;-81
2021/08/29 11:24:47;;;;;;;1.23;1.13;;;;;;;;;;5041902;28;20144;-83
2021/08/29 11:27:32;;;;;;;1.17;1.17;;;;;;;;;;5045778;28;20032;-85
2021/08/29 11:29:58;;;;;;;0.95;0.95;;;;;;;;;;5071624;28;20025;-85
2021/08/29 11:32:33;;;;;;;1.27;1.10;;;;;;;;;;5068213;28;20041;-83
2021/08/29 11:35:17;;;;;;;1.02;1.00;;;;;;;;;;5075803;28;20032;-83
2021/08/29 11:38:00;;;;;;;0.75;0.75;;;;;;;;;;5064865;28;20021;-82
2021/08/29 11:40:26;;;;;;;0.80;0.80;;;;;;;;;;5062645;28;20033;-83
2021/08/29 11:43:15;;;;;;;1.27;1.17;;;;;;;;;;5045029;28;20073;-84
2021/08/29 11:45:41;;;;;;;0.80;0.80;;;;;;;;;;5044314;28;20033;-82
2021/08/29 11:48:07;;;;;;;1.00;1.00;;;;;;;;;;5048458;28;20031;-82
2021/08/29 11:50:34;;;;;;;0.90;0.90;;;;;;;;;;5046610;28;20018;-82
2021/08/29 11:53:00;;;;;;;1.33;1.10;;;;;;;;;;5033864;28;20035;-84
2021/08/29 11:55:26;;;;;;;0.68;0.68;;;;;;;;;;5043255;28;20037;-82
2021/08/29 11:57:53;;;;;;;1.02;1.00;;;;;;;;;;5033339;28;20038;-84
2021/08/29 12:00:21;;;;;;;0.80;0.80;;;;;;;;;;5039128;28;20036;-83
2021/08/29 12:02:47;;;;;;;1.08;0.98;;;;;;;;;;5057442;28;20536;-80
2021/08/29 12:05:15;;;;;;;0.95;0.93;;;;;;;;;;5059777;28;20033;-80
2021/08/29 12:08:02;;;;;;;0.82;0.82;;;;;;;;;;5043274;28;20077;-83
2021/08/29 12:10:28;;;;;;;1.27;0.90;;;;;;;;;;5058155;28;20021;-81
2021/08/29 12:12:54;;;;;;;1.08;1.00;;;;;;;;;;5044060;28;20033;-82
2021/08/29 12:15:20;;;;;;;1.10;1.10;;;;;;;;;;5044241;28;20021;-81
2021/08/29 12:17:48;;;;;;;1.25;1.15;;;;;;;;;;5042437;28;20089;-81
2021/08/29 12:20:14;;;;;;;0.90;0.90;;;;;;;;;;5049321;28;20041;-81
2021/08/29 12:22:40;;;;;;;1.40;1.30;;;;;;;;;;5022953;28;20033;-81
2021/08/29 12:25:07;;;;;;;0.93;0.93;;;;;;;;;;5023967;28;20033;-81
2021/08/29 12:27:33;;;;;;;0.85;0.85;;;;;;;;;;5043615;28;20021;-82
2021/08/29 12:29:59;;;;;;;1.00;0.90;;;;;;;;;;5043994;28;20032;-81
2021/08/29 12:32:30;;;;;;;1.30;1.08;;;;;;;;;;5050770;28;20045;-81
2021/08/29 12:34:58;;;;;;;0.80;0.70;;;;;;;;;;5058918;28;20083;-83
2021/08/29 12:37:25;;;;;;;0.80;0.80;;;;;;;;;;5048027;28;20021;-83
2021/08/29 12:40:00;;;;;;;0.70;0.70;;;;;;;;;;5025232;28;20033;-84
2021/08/29 12:42:27;;;;;;;0.80;0.80;;;;;;;;;;5025202;28;20093;-83
2021/08/29 12:44:56;;;;;;;0.70;0.70;;;;;;;;;;5046963;28;20117;-83
2021/08/29 12:47:22;;;;;;;2.58;1.00;;;;;;;;;;5046143;28;20113;-83
2021/08/29 12:49:50;;;;;;;0.82;0.82;;;;;;;;;;5043794;28;20021;-84
2021/08/29 12:52:18;;;;;;;0.93;0.80;;;;;;;;;;5045920;28;20081;-84
2021/08/29 12:54:45;;;;;;;1.08;0.80;;;;;;;;;;5043899;28;20014;-83
2021/08/29 12:57:11;;;;;;;0.93;0.70;;;;;;;;;;5042799;28;20097;-84
2021/08/29 12:59:37;;;;;;;0.77;0.77;;;;;;;;;;5045433;28;20025;-82
2021/08/29 13:02:03;;;;;;;0.88;0.88;;;;;;;;;;5063331;28;20025;-84
2021/08/29 13:04:31;;;;;;;1.05;0.95;;;;;;;;;;5067482;28;20029;-84
2021/08/29 13:07:04;;;;;;;0.80;0.80;;;;;;;;;;5044143;28;20022;-83
2021/08/29 13:09:32;;;;;;;0.80;0.77;;;;;;;;;;5043371;28;20036;-84
2021/08/29 13:11:58;;;;;;;1.05;0.90;;;;;;;;;;5042191;28;20021;-83
2021/08/29 13:14:28;;;;;;;1.58;0.90;;;;;;;;;;5042305;28;20029;-82
2021/08/29 13:16:54;;;;;;;1.05;1.05;;;;;;;;;;5043108;28;20029;-83
2021/08/29 13:19:27;;;;;;;1.52;1.10;;;;;;;;;;5041859;28;20029;-83
2021/08/29 13:21:57;;;;;;;1.80;1.35;;;;;;;;;;5041960;28;20029;-83
2021/08/29 13:24:24;;;;;;;1.50;1.40;;;;;;;;;;5044475;28;20419;-82
2021/08/29 13:26:50;;;;;;;1.77;1.33;;;;;;;;;;5043140;28;20037;-81
2021/08/29 13:29:16;;;;;;;1.10;1.00;;;;;;;;;;5043003;28;20025;-82
2021/08/29 13:31:42;;;;;;;1.08;0.82;;;;;;;;;;5040829;28;20021;-82
2021/08/29 13:34:09;;;;;;;1.52;1.30;;;;;;;;;;5050962;28;20053;-81
2021/08/29 13:36:42;;;;;;;1.40;1.30;;;;;;;;;;5041728;28;20394;-82
2021/08/29 13:39:12;;;;;;;2.05;1.10;;;;;;;;;;5041284;28;20063;-81
2021/08/29 13:41:39;;;;;;;1.52;1.27;;;;;;;;;;5041925;28;20034;-82
2021/08/29 13:44:05;;;;;;;1.17;1.05;;;;;;;;;;5040410;28;20033;-83
2021/08/29 13:46:31;;;;;;;1.13;1.10;;;;;;;;;;5041735;28;20482;-82
2021/08/29 13:48:57;;;;;;;0.70;0.70;;;;;;;;;;5041779;28;20036;-82
2021/08/29 13:51:24;;;;;;;0.47;0.47;;;;;;;;;;5041862;28;20394;-81
2021/08/29 13:53:50;;;;;;;0.88;0.70;;;;;;;;;;5042209;28;20025;-81
2021/08/29 13:56:17;;;;;;;0.80;0.80;;;;;;;;;;5042825;28;20025;-82
2021/08/29 13:58:43;;;;;;;0.73;0.73;;;;;;;;;;5043721;28;20085;-81
2021/08/29 14:01:09;;;;;;;0.60;0.60;;;;;;;;;;5071624;22;20093;-82
2021/08/29 14:03:35;;;;;;;1.67;0.63;;;;;;;;;;5076708;28;20043;-82
2021/08/29 14:06:01;;;;;;;0.60;0.60;;;;;;;;;;5069904;28;20060;-80
2021/08/29 14:08:27;;;;;;;1.02;0.60;;;;;;;;;;5069980;28;20025;-82
2021/08/29 14:10:53;;;;;;;0.43;0.40;;;;;;;;;;5064787;28;20045;-82
2021/08/29 14:13:19;;;;;;;0.82;0.73;;;;;;;;;;5047111;28;20021;-82
2021/08/29 14:15:45;;;;;;;0.40;0.40;;;;;;;;;;5041769;28;20041;-81
2021/08/29 14:18:11;;;;;;;0.50;0.50;;;;;;;;;;5043724;28;20033;-83
2021/08/29 14:20:37;;;;;;;0.40;0.40;;;;;;;;;;5040409;28;20047;-82
2021/08/29 14:23:04;;;;;;;1.45;0.75;;;;;;;;;;5062160;28;20021;-80
2021/08/29 14:25:30;;;;;;;0.60;0.60;;;;;;;;;;5042171;28;20253;-81
2021/08/29 14:27:56;;;;;;;0.68;0.52;;;;;;;;;;5038363;28;20075;-81
2021/08/29 14:30:27;;;;;;;0.50;0.50;;;;;;;;;;5051661;28;20647;-82
2021/08/29 14:32:54;;;;;;;0.50;0.50;;;;;;;;;;5043794;28;20029;-81
2021/08/29 14:35:20;;;;;;;0.88;0.55;;;;;;;;;;5058409;28;20033;-81
2021/08/29 14:37:46;;;;;;;0.52;0.52;;;;;;;;;;5059357;28;20255;-81
2021/08/29 14:40:13;;;;;;;0.55;0.55;;;;;;;;;;5052405;28;20429;-83
2021/08/29 14:42:40;;;;;;;0.50;0.50;;;;;;;;;;5071690;28;20025;-86
2021/08/29 14:45:07;;;;;;;1.00;0.75;;;;;;;;;;5055469;28;20034;-87